首页
METAR-TAF:

METAR-TAF

机场 :

Marysville / Beale, 加利福尼亚州, 美国

纬度: 39-08N, 经度: 121-26W, 海拔: 34米

当前天气观测

该预报发布于1小时和1分钟前的21:55 UTC
风速7节,风向西南
温度 34°C
湿度 32%
气压 1013 hPa
能見度: 16.1公里
天空无云

METAR: KBAB 152155Z AUTO 22007KT 10SM CLR 34/15 A2991 RMK AO2 SLP130 T03360146 $

时间: 15:56 (22:56 UTC)

预报

该预报发布于3小时和56分钟前的19:00 UTC
预报有效从15日的 19点(UTC)到 17日的 01点(UTC)
风速10节,风向,有时为15节阵风
能见度10公里或以上
少量云层高于16000英尺
成为
从 16日的 04点(UTC)到 16日的 05点(UTC)
风速10节,风向南转南东,有时为15节阵风
能见度10公里或以上
天空无云
成为
从 16日的 23点(UTC)到 16日的 24点(UTC)
风速12节,风向,有时为18节阵风
能见度10公里或以上
天空无云

TAF: KBAB 151900Z 1519/1701 18010G15KT 9999 FEW160 QNH2981INS BECMG 1604/1605 16010G15KT 9999 SKC QNH2986INS BECMG 1623/1624 18012G18KT 9999 SKC QNH2987INS TX37/1600Z TN17/1612Z

超过4000个机场的气象观测和天气预报(METAR&TAF报告)。

可查询的气象台以黄色和红色小点在地图上表示。

将鼠标移到小点上方,可查看气象台名称。

然后点击查看天气观测和预报。

如需切换地图:点击带黑十字的绿色按钮放大地图;点击带横线的绿色按钮缩小地图;或者点击绿色箭头查看邻近地区的地图。


METAR-TAF: